createdAt,value
2022-07-31T00:02:25.391Z,23.75
2022-07-31T00:06:47.449Z,23.25
2022-07-31T00:11:11.831Z,23.02
2022-07-31T00:15:33.592Z,24.05
2022-07-31T00:19:55.671Z,24.38
2022-07-31T00:24:17.769Z,21.95
2022-07-31T00:28:40.010Z,24.10
2022-07-31T00:33:01.929Z,21.77
2022-07-31T00:37:24.408Z,22.95
2022-07-31T00:41:46.969Z,23.15
2022-07-31T00:46:14.267Z,22.23
2022-07-31T00:50:37.507Z,22.92
2022-07-31T00:55:00.569Z,22.17
2022-07-31T00:59:24.988Z,20.50
2022-07-31T01:03:47.589Z,21.98
2022-07-31T01:08:09.929Z,22.92
2022-07-31T01:12:45.530Z,22.50
2022-07-31T01:17:08.611Z,21.67
2022-07-31T01:21:38.729Z,22.60
2022-07-31T01:26:36.470Z,22.48
2022-07-31T01:31:26.822Z,22.95
2022-07-31T01:35:59.076Z,22.17
2022-07-31T01:40:31.026Z,21.27
2022-07-31T01:45:00.253Z,20.75
2022-07-31T01:49:23.205Z,20.33
2022-07-31T01:53:48.388Z,20.95
2022-07-31T01:58:16.426Z,21.92
2022-07-31T02:03:09.597Z,21.38
2022-07-31T02:07:45.410Z,22.50
2022-07-31T02:12:10.662Z,23.80
2022-07-31T02:16:33.890Z,23.30
2022-07-31T02:21:05.171Z,23.63
2022-07-31T02:25:28.664Z,23.25
2022-07-31T02:29:51.391Z,22.05
2022-07-31T02:34:14.330Z,22.80
2022-07-31T02:38:37.690Z,24.95
2022-07-31T02:43:00.031Z,22.80
2022-07-31T02:47:24.030Z,23.35
2022-07-31T02:51:46.591Z,23.50
2022-07-31T02:56:10.017Z,23.27
2022-07-31T03:00:34.483Z,24.27
2022-07-31T03:04:56.751Z,23.80
2022-07-31T03:09:20.530Z,25.15
2022-07-31T03:13:47.291Z,26.15
2022-07-31T03:18:11.959Z,25.42
2022-07-31T03:22:36.691Z,25.17
2022-07-31T03:27:00.494Z,25.05
2022-07-31T03:31:22.691Z,25.35
2022-07-31T03:35:44.911Z,24.77
2022-07-31T03:40:08.854Z,26.17
2022-07-31T03:44:32.973Z,27.13
2022-07-31T03:48:55.247Z,26.52
2022-07-31T03:53:21.191Z,27.55
2022-07-31T03:57:44.891Z,25.75
2022-07-31T04:02:11.913Z,25.30
2022-07-31T04:06:38.292Z,21.23
2022-07-31T04:11:01.780Z,19.42
2022-07-31T04:15:25.191Z,13.70
2022-07-31T04:19:49.731Z,11.20
2022-07-31T04:24:16.915Z,9.18
2022-07-31T04:28:59.387Z,7.65
2022-07-31T04:33:21.596Z,6.78
2022-07-31T04:37:48.131Z,6.63
2022-07-31T04:42:12.276Z,6.10
2022-07-31T04:46:34.751Z,5.32
2022-07-31T04:50:57.766Z,4.80
2022-07-31T04:55:20.105Z,4.68
2022-07-31T04:59:57.893Z,4.95
2022-07-31T05:04:22.448Z,4.30
2022-07-31T05:08:45.065Z,4.22
2022-07-31T05:13:07.266Z,3.80
2022-07-31T05:17:29.686Z,4.30
2022-07-31T05:22:17.606Z,3.83
2022-07-31T05:27:07.145Z,3.90
2022-07-31T05:31:29.489Z,3.95
2022-07-31T05:35:51.306Z,3.50
2022-07-31T05:40:13.665Z,3.50
2022-07-31T05:44:54.366Z,3.50
2022-07-31T05:49:16.507Z,3.63
2022-07-31T05:53:44.293Z,3.40
2022-07-31T05:58:27.206Z,3.00
2022-07-31T06:02:50.287Z,3.00
2022-07-31T06:07:51.938Z,4.03
2022-07-31T06:12:14.505Z,3.30
2022-07-31T06:16:36.969Z,3.20
2022-07-31T06:20:59.125Z,3.70
2022-07-31T06:25:22.105Z,3.67
2022-07-31T06:29:44.625Z,3.15
2022-07-31T06:34:07.725Z,2.80
2022-07-31T06:38:34.745Z,2.83
2022-07-31T06:43:32.534Z,2.88
2022-07-31T06:48:18.366Z,3.38
2022-07-31T06:52:54.686Z,3.00
2022-07-31T06:57:18.666Z,3.08
2022-07-31T07:01:40.609Z,3.15
2022-07-31T07:06:03.775Z,2.90
2022-07-31T07:10:26.207Z,2.90
2022-07-31T07:15:11.765Z,3.28
2022-07-31T07:19:33.975Z,3.00
2022-07-31T07:23:56.226Z,3.67
2022-07-31T07:28:30.170Z,3.20
2022-07-31T07:32:56.887Z,3.40
2022-07-31T07:37:19.486Z,2.97
2022-07-31T07:41:41.965Z,3.33
2022-07-31T07:46:04.047Z,2.90
2022-07-31T07:50:29.655Z,2.90
2022-07-31T07:55:12.609Z,2.65
2022-07-31T08:00:01.665Z,2.72
2022-07-31T08:04:38.809Z,3.22
2022-07-31T08:09:01.028Z,3.10
2022-07-31T08:13:44.477Z,3.05
2022-07-31T08:18:38.530Z,2.92
2022-07-31T08:23:00.825Z,2.60
2022-07-31T08:27:39.746Z,3.10
2022-07-31T08:32:03.158Z,2.72
2022-07-31T08:36:45.548Z,2.60
2022-07-31T08:41:07.605Z,2.80
2022-07-31T08:45:30.678Z,2.65
2022-07-31T08:50:07.146Z,2.88
2022-07-31T08:54:33.866Z,3.22
2022-07-31T08:58:59.087Z,2.45
2022-07-31T09:03:21.705Z,2.53
2022-07-31T09:07:54.526Z,2.75
2022-07-31T09:12:34.448Z,2.45
2022-07-31T09:17:04.455Z,2.65
2022-07-31T09:21:38.028Z,2.60
2022-07-31T09:26:06.275Z,2.92
2022-07-31T09:30:29.271Z,2.42
2022-07-31T09:35:15.709Z,2.50
2022-07-31T09:39:42.312Z,2.90
2022-07-31T09:44:49.306Z,3.05
2022-07-31T09:49:12.703Z,3.00
2022-07-31T09:53:53.747Z,2.97
2022-07-31T09:58:36.226Z,2.55
2022-07-31T10:03:00.128Z,2.38
2022-07-31T10:07:32.309Z,2.15
2022-07-31T10:12:16.489Z,2.42
2022-07-31T10:16:44.925Z,2.17
2022-07-31T10:21:43.898Z,2.75
2022-07-31T10:26:10.686Z,2.70
2022-07-31T10:30:32.870Z,2.80
2022-07-31T10:34:55.877Z,2.58
2022-07-31T10:40:25.625Z,2.40
2022-07-31T10:45:17.646Z,2.40
2022-07-31T10:49:59.388Z,2.35
2022-07-31T10:54:46.966Z,2.55
2022-07-31T10:59:30.605Z,2.40
2022-07-31T11:04:11.485Z,2.70
2022-07-31T11:09:02.486Z,2.53
2022-07-31T11:14:00.693Z,2.20
2022-07-31T11:19:07.025Z,2.10
2022-07-31T11:23:31.745Z,2.05
2022-07-31T11:27:53.726Z,2.45
2022-07-31T11:32:24.778Z,2.10
2022-07-31T11:36:51.546Z,2.28
2022-07-31T11:41:15.113Z,2.28
2022-07-31T11:45:51.627Z,2.00
2022-07-31T11:50:14.168Z,2.58
2022-07-31T11:54:37.589Z,2.50
2022-07-31T11:59:00.045Z,2.20
2022-07-31T12:03:37.401Z,1.98
2022-07-31T12:07:59.625Z,2.00
2022-07-31T12:12:23.960Z,1.63
2022-07-31T12:16:49.285Z,1.63
2022-07-31T12:21:11.126Z,1.83
2022-07-31T12:25:45.924Z,1.98
2022-07-31T12:30:18.305Z,2.15
2022-07-31T12:34:42.405Z,2.30
2022-07-31T12:39:05.785Z,2.53
2022-07-31T12:43:27.565Z,2.00
2022-07-31T12:47:54.167Z,2.08
2022-07-31T12:52:16.825Z,2.20
2022-07-31T12:56:42.345Z,2.50
2022-07-31T13:07:11.542Z,1.80
2022-07-31T13:11:48.153Z,1.90
2022-07-31T13:16:10.583Z,1.63
2022-07-31T13:20:32.953Z,1.85
2022-07-31T13:24:55.123Z,1.70
2022-07-31T13:29:18.243Z,1.67
2022-07-31T13:33:40.323Z,1.58
2022-07-31T13:38:02.943Z,2.20
2022-07-31T13:42:29.828Z,1.77
2022-07-31T13:46:52.142Z,1.70
2022-07-31T13:51:14.984Z,1.55
2022-07-31T13:55:37.926Z,2.08
2022-07-31T14:00:00.155Z,1.45
2022-07-31T14:04:23.515Z,1.60
2022-07-31T14:08:50.138Z,1.70
2022-07-31T14:13:12.822Z,1.92
2022-07-31T14:17:34.682Z,1.50
2022-07-31T14:22:11.410Z,3.15
2022-07-31T14:26:33.882Z,1.83
2022-07-31T14:30:56.122Z,1.70
2022-07-31T14:35:18.183Z,1.98
2022-07-31T14:39:42.781Z,2.00
2022-07-31T14:44:05.303Z,1.70
2022-07-31T14:48:27.622Z,1.98
2022-07-31T14:52:49.563Z,1.65
2022-07-31T14:57:11.969Z,3.50
2022-07-31T15:01:34.548Z,2.20
2022-07-31T15:06:41.248Z,2.00
2022-07-31T15:10:39.474Z,2.03
2022-07-31T15:15:02.422Z,1.80
2022-07-31T15:19:24.903Z,4.80
2022-07-31T15:23:46.822Z,2.30
2022-07-31T15:28:08.986Z,2.30
2022-07-31T15:32:31.185Z,1.90
2022-07-31T15:36:53.263Z,2.00
2022-07-31T15:41:18.942Z,2.05
2022-07-31T15:45:41.403Z,2.00
2022-07-31T15:50:06.902Z,2.20
2022-07-31T15:54:29.203Z,2.10
2022-07-31T15:58:53.900Z,2.10
2022-07-31T16:03:17.936Z,3.30
2022-07-31T16:08:29.260Z,2.22
2022-07-31T16:12:24.163Z,2.42
2022-07-31T16:16:46.126Z,2.65
2022-07-31T16:21:08.523Z,2.58
2022-07-31T16:25:34.784Z,2.05
2022-07-31T16:29:59.908Z,2.30
2022-07-31T16:34:24.843Z,3.55
2022-07-31T16:38:59.615Z,2.58
2022-07-31T16:43:50.928Z,2.75
2022-07-31T16:48:11.104Z,2.30
2022-07-31T16:52:32.903Z,1.92
2022-07-31T16:56:55.044Z,2.40
2022-07-31T17:01:58.396Z,2.30
2022-07-31T17:05:59.584Z,2.00
2022-07-31T17:10:21.827Z,2.08
2022-07-31T17:14:44.146Z,2.40
2022-07-31T17:19:06.028Z,2.30
2022-07-31T17:23:44.007Z,2.03
2022-07-31T17:28:15.030Z,2.33
2022-07-31T17:32:37.742Z,2.22
2022-07-31T17:36:59.746Z,2.17
2022-07-31T17:41:24.948Z,2.30
2022-07-31T17:46:05.621Z,2.30
2022-07-31T17:50:29.883Z,2.50
2022-07-31T17:54:52.604Z,2.25
2022-07-31T17:59:14.903Z,2.15
2022-07-31T18:03:37.242Z,2.65
2022-07-31T18:07:59.505Z,2.60
2022-07-31T18:12:21.482Z,2.47
2022-07-31T18:16:43.603Z,3.35
2022-07-31T18:21:06.367Z,2.92
2022-07-31T18:25:28.612Z,3.53
2022-07-31T18:29:56.205Z,2.53
2022-07-31T18:34:18.803Z,2.33
2022-07-31T18:38:40.843Z,2.60
2022-07-31T18:43:04.283Z,2.33
2022-07-31T18:47:26.886Z,2.90
2022-07-31T18:51:49.103Z,2.30
2022-07-31T18:56:11.303Z,2.63
2022-07-31T19:00:33.323Z,2.60
2022-07-31T19:04:55.403Z,2.67
2022-07-31T19:09:19.842Z,2.85
2022-07-31T19:13:41.583Z,3.55
2022-07-31T19:18:05.228Z,2.92
2022-07-31T19:22:29.421Z,2.13
2022-07-31T19:26:51.859Z,2.13
2022-07-31T19:31:14.503Z,2.08
2022-07-31T19:35:36.347Z,2.38
2022-07-31T19:40:18.283Z,2.00
2022-07-31T19:44:40.725Z,1.92
2022-07-31T19:49:03.796Z,2.00
2022-07-31T19:53:25.906Z,1.90
2022-07-31T19:57:47.963Z,2.20
2022-07-31T20:02:12.014Z,2.30
2022-07-31T20:06:39.282Z,1.95
2022-07-31T20:11:04.100Z,1.90
2022-07-31T20:15:26.620Z,1.95
2022-07-31T20:20:15.287Z,2.70
2022-07-31T20:24:39.243Z,2.53
2022-07-31T20:29:01.242Z,1.95
2022-07-31T20:33:23.342Z,1.98
2022-07-31T20:37:45.862Z,1.90
2022-07-31T20:42:08.304Z,2.60
2022-07-31T20:46:30.762Z,2.17
2022-07-31T20:50:53.202Z,2.13
2022-07-31T20:55:15.086Z,2.30
2022-07-31T20:59:36.882Z,2.03
2022-07-31T21:03:58.983Z,2.42
2022-07-31T21:08:21.745Z,2.70
2022-07-31T21:12:43.617Z,2.60
2022-07-31T21:17:05.803Z,1.88
2022-07-31T21:21:27.724Z,2.40
2022-07-31T21:25:54.304Z,2.47
2022-07-31T21:30:16.682Z,2.75
2022-07-31T21:34:39.324Z,2.45
2022-07-31T21:39:01.623Z,2.63
2022-07-31T21:43:24.502Z,2.65
2022-07-31T21:47:53.205Z,2.53
2022-07-31T21:52:15.563Z,2.50
2022-07-31T21:56:37.463Z,2.47
2022-07-31T22:00:59.824Z,2.90
2022-07-31T22:05:40.563Z,2.53
2022-07-31T22:10:03.523Z,2.83
2022-07-31T22:14:25.663Z,3.20
2022-07-31T22:18:48.183Z,2.85
2022-07-31T22:23:11.488Z,3.65
2022-07-31T22:27:52.164Z,3.08
2022-07-31T22:32:14.604Z,3.08
2022-07-31T22:36:36.524Z,3.20
2022-07-31T22:40:59.944Z,3.10
2022-07-31T22:45:22.303Z,3.33
2022-07-31T22:49:44.365Z,3.70
2022-07-31T22:54:06.744Z,3.60
2022-07-31T22:58:28.684Z,4.07
2022-07-31T23:02:50.759Z,3.78
2022-07-31T23:07:12.744Z,4.55
2022-07-31T23:11:34.544Z,3.90
2022-07-31T23:15:56.747Z,4.55
2022-07-31T23:20:18.904Z,3.95
2022-07-31T23:24:41.024Z,4.28
2022-07-31T23:29:03.193Z,4.45
2022-07-31T23:33:24.963Z,4.15
2022-07-31T23:37:47.967Z,4.40
2022-07-31T23:42:28.864Z,4.93
2022-07-31T23:46:51.183Z,4.38
2022-07-31T23:51:13.467Z,4.63
2022-07-31T23:55:39.193Z,4.60
